General Aviation Weather

Text Reports

Enter one or more of the following location identifiers separated by a space:

Zip Code, Four-Character ICAO or Three-Character IATA airport codes.

METAR - Aviation Routine Weather Report
KPEZ - Pleasanton, Texas
Updated at 8:55 AM GMT on December 25, 2014 (2:55 AM CST):
METAR KPEZ 250855Z AUTO 00000KT 7SM -SN CLR 01/M02 A3012 RMK AO2 T00091025
TAF - Terminal Area Forecast
KPEZ - Pleasanton, Texas
Updated at 8:55 AM GMT on December 25, 2014 (2:55 AM CST):
No TAF is currently available for this location.
Decoded:
No decoded TAF is available.
PIREP - Pilot Weather Report
KPEZ - Pleasanton, Texas
Updated at 8:55 AM GMT on December 25, 2014 (2:55 AM CST):
No PIREP is currently available for this location.
AIRMET - Airmens Meteorological Information
KPEZ - Pleasanton, Texas
Updated at 8:55 AM GMT on December 25, 2014 (2:55 AM CST):
No AIRMET is currently available for this location.
SIGMET - Significant Meteorological Information
KPEZ - Pleasanton, Texas
Updated at 8:55 AM GMT on December 25, 2014 (2:55 AM CST):
No SIGMET is currently available for this location.
NOTAM - Notice to Airmen
KPEZ - Pleasanton, Texas
Updated at 8:55 AM GMT on December 25, 2014 (2:55 AM CST):
No NOTAM is currently available for this location.
Forecast Area
KPEZ - Pleasanton, Texas
Updated at 8:55 AM GMT on December 25, 2014 (2:55 AM CST):
No NOTAM is currently available for this location.
Aviation Weather Maps